Time;durP1;ratioP1;P1;durP2;ratioP2;P2;SDS_P1;SDS_P2;PMS_P1;PMS_P2;Temp;Humidity;BMP_temperature;BMP_pressure;BME280_temperature;BME280_humidity;BME280_pressure;Samples;Min_cycle;Max_cycle;Signal;HPM_P1;HPM_P2
2022/03/24 00:00:38;;;;;;;25.07;10.93;;;5.30;58.40;;;;;;4190232;28;20303;-50
2022/03/24 00:02:40;;;;;;;21.83;10.47;;;5.20;58.80;;;;;;4175964;28;20268;-51
2022/03/24 00:04:41;;;;;;;21.03;10.33;;;5.20;58.80;;;;;;4182660;28;20265;-54
2022/03/24 00:06:42;;;;;;;20.57;10.13;;;5.10;58.90;;;;;;4176903;28;20702;-55
2022/03/24 00:08:43;;;;;;;20.17;10.13;;;5.10;59.30;;;;;;4186160;28;20765;-55
2022/03/24 00:10:44;;;;;;;19.67;10.37;;;5.10;59.20;;;;;;4180446;28;20274;-50
2022/03/24 00:12:45;;;;;;;22.23;10.40;;;5.00;59.40;;;;;;4172850;28;20250;-49
2022/03/24 00:14:47;;;;;;;17.37;8.60;;;5.00;59.30;;;;;;4174340;28;20297;-53
2022/03/24 00:16:48;;;;;;;20.20;9.90;;;5.00;59.40;;;;;;4172842;28;20262;-50
2022/03/24 00:18:50;;;;;;;21.00;9.50;;;5.00;59.40;;;;;;4183649;28;20266;-56
2022/03/24 00:20:51;;;;;;;21.50;10.23;;;4.90;59.50;;;;;;4187692;28;20315;-48
2022/03/24 00:22:52;;;;;;;20.40;9.93;;;4.90;59.60;;;;;;4189329;28;21211;-51
2022/03/24 00:24:53;;;;;;;20.37;10.10;;;4.90;60.00;;;;;;4188948;28;20738;-51
2022/03/24 00:26:55;;;;;;;20.53;10.33;;;4.80;60.30;;;;;;4180129;28;20266;-48
2022/03/24 00:28:56;;;;;;;23.17;11.33;;;4.70;60.30;;;;;;4181307;28;20278;-49
2022/03/24 00:30:58;;;;;;;23.90;10.83;;;4.70;60.30;;;;;;4182586;28;20270;-53
2022/03/24 00:32:59;;;;;;;21.43;10.50;;;4.60;60.50;;;;;;4182456;28;21208;-52
2022/03/24 00:35:01;;;;;;;19.83;10.33;;;4.50;60.50;;;;;;4169391;28;20290;-56
2022/03/24 00:37:04;;;;;;;21.60;9.53;;;4.50;60.90;;;;;;4178821;28;21108;-55
2022/03/24 00:39:06;;;;;;;18.93;9.70;;;4.50;60.80;;;;;;4178513;28;20265;-56
2022/03/24 00:41:07;;;;;;;22.57;9.37;;;4.40;61.00;;;;;;4180340;28;20281;-58
2022/03/24 00:43:09;;;;;;;20.57;9.50;;;4.40;61.00;;;;;;4177524;28;20831;-53
2022/03/24 00:45:12;;;;;;;21.33;9.43;;;4.40;61.30;;;;;;4178405;28;20270;-57
2022/03/24 00:47:14;;;;;;;18.67;8.30;;;4.40;61.00;;;;;;4178916;28;20351;-55
2022/03/24 00:49:15;;;;;;;20.17;9.20;;;4.40;61.20;;;;;;4179472;28;20270;-56
2022/03/24 00:51:18;;;;;;;16.83;8.63;;;4.40;61.20;;;;;;4166953;28;20322;-53
2022/03/24 00:53:19;;;;;;;28.57;9.33;;;4.40;61.20;;;;;;4194034;28;20350;-52
2022/03/24 00:55:20;;;;;;;19.43;10.13;;;4.40;61.10;;;;;;4189635;28;20519;-52
2022/03/24 00:57:22;;;;;;;21.93;9.87;;;4.40;61.20;;;;;;4162537;28;20340;-50
2022/03/24 00:59:23;;;;;;;18.17;8.87;;;4.40;61.50;;;;;;4161389;28;21083;-55
2022/03/24 01:01:24;;;;;;;19.97;9.00;;;4.30;61.10;;;;;;4171137;28;20323;-54
2022/03/24 01:03:25;;;;;;;17.57;9.60;;;4.30;61.20;;;;;;4194402;28;20318;-52
2022/03/24 01:05:27;;;;;;;21.63;9.40;;;4.30;61.40;;;;;;4186024;28;20347;-49
2022/03/24 01:07:28;;;;;;;21.30;9.97;;;4.20;61.50;;;;;;4178295;28;20335;-49
2022/03/24 01:09:30;;;;;;;24.03;9.70;;;4.20;61.50;;;;;;4184930;28;20346;-58
2022/03/24 01:11:32;;;;;;;25.97;11.77;;;4.10;61.60;;;;;;4195214;28;20717;-50
2022/03/24 01:13:36;;;;;;;21.37;9.67;;;4.10;61.80;;;;;;4194445;28;20311;-55
2022/03/24 01:15:37;;;;;;;21.77;10.93;;;4.00;62.30;;;;;;4193504;28;20351;-56
2022/03/24 01:17:38;;;;;;;21.03;9.50;;;4.00;61.40;;;;;;4192974;28;21014;-52
2022/03/24 01:19:39;;;;;;;22.50;10.87;;;3.90;62.10;;;;;;4194412;28;20353;-51
2022/03/24 01:21:41;;;;;;;20.20;10.53;;;3.90;62.10;;;;;;4191634;28;20281;-55
2022/03/24 01:23:45;;;;;;;18.63;9.13;;;3.80;62.00;;;;;;4181398;28;20324;-55
2022/03/24 01:25:46;;;;;;;21.50;9.57;;;3.80;62.30;;;;;;4194152;28;20277;-53
2022/03/24 01:27:47;;;;;;;22.43;9.03;;;3.70;62.50;;;;;;4195487;28;20327;-50
2022/03/24 01:29:49;;;;;;;19.47;10.17;;;3.60;62.70;;;;;;4188325;28;20277;-53
2022/03/24 01:31:51;;;;;;;18.00;9.03;;;3.60;62.80;;;;;;4193355;28;20281;-53
2022/03/24 01:33:53;;;;;;;21.07;10.50;;;3.50;62.70;;;;;;4190905;28;20688;-55
2022/03/24 01:35:54;;;;;;;17.93;8.97;;;3.50;62.90;;;;;;4185053;28;20309;-49
2022/03/24 01:37:55;;;;;;;19.10;8.67;;;3.50;62.50;;;;;;4185658;28;20338;-50
2022/03/24 01:39:56;;;;;;;19.17;9.83;;;3.50;62.70;;;;;;4195049;28;20261;-54
2022/03/24 01:41:58;;;;;;;18.63;9.13;;;3.50;62.40;;;;;;4194285;28;20265;-53
2022/03/24 01:43:59;;;;;;;23.93;8.10;;;3.60;62.90;;;;;;4178715;28;20278;-52
2022/03/24 01:46:01;;;;;;;16.60;8.37;;;3.60;63.00;;;;;;4179531;28;20327;-53
2022/03/24 01:48:02;;;;;;;18.77;8.23;;;3.60;62.50;;;;;;4174399;28;20335;-53
2022/03/24 01:50:06;;;;;;;17.53;7.83;;;3.60;62.60;;;;;;4187652;28;20300;-52
2022/03/24 01:52:10;;;;;;;16.30;8.63;;;3.60;62.70;;;;;;4189320;28;20274;-54
2022/03/24 01:54:12;;;;;;;15.73;7.90;;;3.60;62.50;;;;;;4192824;28;20274;-52
2022/03/24 01:56:14;;;;;;;19.40;8.57;;;3.60;62.60;;;;;;4189623;28;20273;-53
2022/03/24 01:58:15;;;;;;;19.20;8.03;;;3.60;62.50;;;;;;4179833;28;20925;-58
2022/03/24 02:00:16;;;;;;;16.10;8.53;;;3.60;63.00;;;;;;4174794;28;20281;-54
2022/03/24 02:02:17;;;;;;;20.57;8.67;;;3.50;62.60;;;;;;4178367;28;20274;-50
2022/03/24 02:04:22;;;;;;;20.20;8.90;;;3.50;62.60;;;;;;4190452;28;20663;-54
2022/03/24 02:06:24;;;;;;;19.10;8.47;;;3.50;63.00;;;;;;4179960;28;20325;-53
2022/03/24 02:08:25;;;;;;;18.73;9.10;;;3.40;62.90;;;;;;4176952;28;20281;-54
2022/03/24 02:10:26;;;;;;;16.23;8.10;;;3.40;63.00;;;;;;4189065;28;20274;-49
2022/03/24 02:12:28;;;;;;;20.93;9.13;;;3.40;63.20;;;;;;4178445;28;20749;-55
2022/03/24 02:14:30;;;;;;;24.73;8.13;;;3.30;63.00;;;;;;4175158;28;20335;-53
2022/03/24 02:16:39;;;;;;;24.23;9.03;;;3.30;63.20;;;;;;4176377;28;20332;-52
2022/03/24 02:18:40;;;;;;;20.10;9.70;;;3.30;63.60;;;;;;4177923;28;20328;-54
2022/03/24 02:20:41;;;;;;;16.47;7.30;;;3.30;63.60;;;;;;4175669;28;20332;-54
2022/03/24 02:22:44;;;;;;;18.63;7.80;;;3.30;63.60;;;;;;4177770;28;20299;-53
2022/03/24 02:24:45;;;;;;;15.90;7.50;;;3.30;63.60;;;;;;4184788;28;20286;-54
2022/03/24 02:26:47;;;;;;;18.23;7.83;;;3.20;63.70;;;;;;4175197;28;20293;-53
2022/03/24 02:28:49;;;;;;;18.13;7.50;;;3.20;63.90;;;;;;4175395;28;20282;-53
2022/03/24 02:30:51;;;;;;;18.80;8.17;;;3.20;63.50;;;;;;4174773;28;20278;-56
2022/03/24 02:32:52;;;;;;;20.83;7.83;;;3.20;64.00;;;;;;4175835;28;20274;-52
2022/03/24 02:34:54;;;;;;;17.73;7.73;;;3.20;63.90;;;;;;4190329;28;20297;-54
2022/03/24 02:36:55;;;;;;;14.90;6.90;;;3.20;63.60;;;;;;4180610;28;20293;-49
2022/03/24 02:38:56;;;;;;;16.60;7.70;;;3.20;63.50;;;;;;4184377;28;20328;-52
2022/03/24 02:40:58;;;;;;;16.30;8.07;;;3.20;63.50;;;;;;4184534;28;20696;-54
2022/03/24 02:43:00;;;;;;;16.50;6.80;;;3.20;63.60;;;;;;4188379;28;20322;-50
2022/03/24 02:45:06;;;;;;;15.00;7.20;;;3.20;63.70;;;;;;4176314;28;20274;-50
2022/03/24 02:47:08;;;;;;;12.70;7.20;;;3.20;63.50;;;;;;4174726;28;20764;-52
2022/03/24 02:49:10;;;;;;;13.70;6.30;;;3.20;63.60;;;;;;4175261;28;21201;-55
2022/03/24 02:51:12;;;;;;;15.67;7.53;;;3.20;63.60;;;;;;4175878;28;20278;-51
2022/03/24 02:53:13;;;;;;;16.50;8.17;;;3.20;63.50;;;;;;4179392;28;20323;-52
2022/03/24 02:55:14;;;;;;;16.23;7.47;;;3.20;64.00;;;;;;4176606;28;20765;-61
2022/03/24 02:57:15;;;;;;;18.33;7.10;;;3.10;64.00;;;;;;4174592;28;20274;-53
2022/03/24 02:59:17;;;;;;;18.47;8.50;;;3.00;64.40;;;;;;4173684;28;20757;-51
2022/03/24 03:01:18;;;;;;;17.40;8.07;;;3.00;64.30;;;;;;4175488;28;20327;-54
2022/03/24 03:03:21;;;;;;;21.40;8.37;;;2.90;64.70;;;;;;4191942;28;20324;-54
2022/03/24 03:05:22;;;;;;;21.23;8.43;;;2.80;64.70;;;;;;4190588;28;20254;-52
2022/03/24 03:07:23;;;;;;;17.73;7.50;;;2.80;64.90;;;;;;4188039;28;20277;-53
2022/03/24 03:09:25;;;;;;;18.43;7.60;;;2.70;64.90;;;;;;4187662;28;20684;-57
2022/03/24 03:11:26;;;;;;;14.73;7.23;;;2.70;65.30;;;;;;4175377;28;20258;-55
2022/03/24 03:13:27;;;;;;;14.40;7.53;;;2.70;65.60;;;;;;4173583;28;20323;-51
2022/03/24 03:15:28;;;;;;;15.63;7.47;;;2.60;65.50;;;;;;4174691;28;20298;-52
2022/03/24 03:17:30;;;;;;;23.50;7.97;;;2.60;65.70;;;;;;4174336;28;20289;-51
2022/03/24 03:19:32;;;;;;;13.90;7.37;;;2.50;65.50;;;;;;4174656;28;20317;-55
2022/03/24 03:21:33;;;;;;;15.03;6.87;;;2.50;65.60;;;;;;4183571;28;21254;-51
2022/03/24 03:23:38;;;;;;;21.07;7.70;;;2.40;65.80;;;;;;4188594;28;20277;-56
2022/03/24 03:25:39;;;;;;;17.07;7.07;;;2.40;65.90;;;;;;4188841;28;20351;-56
2022/03/24 03:27:40;;;;;;;12.43;7.23;;;2.40;65.80;;;;;;4188317;28;20281;-58
2022/03/24 03:29:42;;;;;;;19.40;8.07;;;2.40;65.80;;;;;;4190730;28;20281;-50
2022/03/24 03:31:44;;;;;;;16.47;7.50;;;2.40;66.00;;;;;;4187612;28;20282;-51
2022/03/24 03:33:45;;;;;;;13.30;6.27;;;2.40;66.10;;;;;;4183837;28;20277;-55
2022/03/24 03:35:46;;;;;;;16.33;7.10;;;2.30;66.20;;;;;;4173783;28;20305;-53
2022/03/24 03:37:48;;;;;;;12.67;6.63;;;2.30;66.30;;;;;;4189319;28;20695;-55
2022/03/24 03:39:49;;;;;;;21.70;8.17;;;2.30;66.40;;;;;;4174112;28;20266;-55
2022/03/24 03:41:51;;;;;;;16.20;7.33;;;2.30;66.30;;;;;;4156560;28;20317;-54
2022/03/24 03:43:53;;;;;;;17.10;7.50;;;2.30;66.50;;;;;;4156855;28;20278;-54
2022/03/24 03:45:55;;;;;;;15.53;7.43;;;2.30;66.20;;;;;;4161301;28;20251;-52
2022/03/24 03:47:57;;;;;;;16.40;7.60;;;2.30;66.30;;;;;;4174656;28;20340;-52
2022/03/24 03:49:59;;;;;;;16.60;7.67;;;2.30;66.20;;;;;;4174170;28;20332;-54
2022/03/24 03:52:00;;;;;;;16.27;7.13;;;2.30;66.40;;;;;;4184079;28;20273;-52
2022/03/24 03:54:01;;;;;;;22.57;8.40;;;2.30;66.30;;;;;;4190083;28;20265;-52
2022/03/24 03:56:04;;;;;;;16.60;7.13;;;2.30;66.20;;;;;;4188296;28;20676;-56
2022/03/24 03:58:06;;;;;;;25.63;9.50;;;2.30;66.30;;;;;;4189957;28;20281;-56
2022/03/24 04:02:28;;;;;;;20.27;7.85;;;2.20;66.30;;;;;;4177434;28;20282;-60
2022/03/24 04:04:29;;;;;;;20.17;8.23;;;2.10;66.70;;;;;;4174214;28;20021;-52
2022/03/24 04:06:30;;;;;;;18.00;9.10;;;2.10;66.80;;;;;;4175414;28;20278;-59
2022/03/24 04:08:32;;;;;;;18.73;8.37;;;2.00;66.50;;;;;;4189234;28;20261;-56
2022/03/24 04:10:33;;;;;;;19.63;8.10;;;2.00;66.80;;;;;;4176076;28;21204;-52
2022/03/24 04:12:34;;;;;;;20.77;9.73;;;1.90;67.00;;;;;;4188784;28;20304;-53
2022/03/24 04:14:35;;;;;;;21.57;8.43;;;1.90;67.00;;;;;;4188327;28;20269;-56
2022/03/24 04:16:36;;;;;;;23.93;8.60;;;1.90;67.30;;;;;;4178614;28;21234;-54
2022/03/24 04:18:43;;;;;;;15.97;7.93;;;1.80;67.20;;;;;;4173739;28;20278;-54
2022/03/24 04:20:45;;;;;;;20.47;7.80;;;1.90;67.30;;;;;;4175113;28;20278;-55
2022/03/24 04:22:48;;;;;;;22.90;8.60;;;1.90;67.50;;;;;;4172851;28;20787;-53
2022/03/24 04:24:49;;;;;;;20.27;9.37;;;1.80;68.10;;;;;;4172627;28;20762;-53
2022/03/24 04:26:50;;;;;;;19.97;8.27;;;1.70;68.20;;;;;;4181278;28;20334;-56
2022/03/24 04:28:51;;;;;;;27.70;9.53;;;1.70;68.00;;;;;;4187328;28;20300;-55
2022/03/24 04:30:52;;;;;;;26.57;9.63;;;1.70;68.30;;;;;;4177805;28;20664;-53
2022/03/24 04:32:54;;;;;;;26.43;8.00;;;1.70;68.00;;;;;;4188130;28;20323;-54
2022/03/24 04:34:55;;;;;;;19.87;7.47;;;1.70;67.90;;;;;;4189469;28;20715;-55
2022/03/24 04:36:57;;;;;;;18.80;7.83;;;1.80;68.00;;;;;;4189059;28;20339;-61
2022/03/24 04:39:01;;;;;;;22.90;7.27;;;1.90;67.80;;;;;;4176185;28;20820;-53
2022/03/24 04:41:02;;;;;;;18.97;7.90;;;2.00;67.60;;;;;;4160278;28;21284;-57
2022/03/24 04:43:04;;;;;;;18.50;7.87;;;2.30;67.20;;;;;;4159034;28;20271;-56
2022/03/24 04:45:06;;;;;;;17.50;8.13;;;2.60;66.70;;;;;;4165700;28;20975;-51
2022/03/24 04:47:07;;;;;;;19.10;8.53;;;3.00;66.00;;;;;;4157075;28;20309;-60
2022/03/24 04:49:09;;;;;;;17.07;8.87;;;3.40;65.20;;;;;;4155670;28;20305;-55
2022/03/24 04:51:10;;;;;;;18.10;8.57;;;3.80;64.40;;;;;;4157078;28;20270;-55
2022/03/24 04:53:15;;;;;;;20.33;8.17;;;4.20;63.90;;;;;;4155886;28;20274;-59
2022/03/24 04:55:17;;;;;;;20.00;11.47;;;4.60;63.20;;;;;;4159147;28;20324;-57
2022/03/24 04:57:18;;;;;;;24.90;8.57;;;5.00;62.60;;;;;;4155560;28;20267;-54
2022/03/24 04:59:19;;;;;;;21.63;8.50;;;5.40;62.20;;;;;;4156177;28;20317;-54
2022/03/24 05:01:20;;;;;;;22.33;8.70;;;5.80;61.40;;;;;;4165724;28;20274;-52
2022/03/24 05:03:21;;;;;;;22.93;9.50;;;6.20;61.10;;;;;;4173416;28;20274;-58
2022/03/24 05:05:24;;;;;;;22.27;10.17;;;6.40;60.70;;;;;;4171893;28;20270;-57
2022/03/24 05:07:26;;;;;;;23.10;10.23;;;6.90;60.60;;;;;;4172599;28;20319;-57
2022/03/24 05:09:27;;;;;;;29.70;9.97;;;7.30;59.60;;;;;;4172855;28;20657;-56
2022/03/24 05:11:28;;;;;;;25.87;10.50;;;7.90;59.30;;;;;;4172376;28;20273;-59
2022/03/24 05:13:30;;;;;;;24.03;10.60;;;8.20;58.30;;;;;;4172883;28;20646;-57
2022/03/24 05:15:32;;;;;;;25.40;9.90;;;8.50;57.70;;;;;;4166339;28;20337;-58
2022/03/24 05:17:33;;;;;;;20.30;9.70;;;8.60;57.20;;;;;;4155998;28;20045;-56
2022/03/24 05:19:35;;;;;;;20.50;8.73;;;8.80;57.20;;;;;;4155713;28;20044;-60
2022/03/24 05:21:36;;;;;;;22.10;9.40;;;9.10;56.90;;;;;;4157974;28;20029;-60
2022/03/24 05:23:37;;;;;;;45.20;11.27;;;9.30;56.50;;;;;;4158546;28;20088;-60
2022/03/24 05:25:38;;;;;;;47.33;13.53;;;9.70;56.30;;;;;;4160211;28;20041;-61
2022/03/24 05:27:39;;;;;;;38.23;13.50;;;10.10;55.40;;;;;;4179289;28;20036;-57
2022/03/24 05:29:41;;;;;;;31.63;12.10;;;10.20;55.00;;;;;;4193048;28;20283;-57
2022/03/24 05:31:42;;;;;;;37.60;12.77;;;10.60;55.50;;;;;;4189273;28;20032;-57
2022/03/24 05:33:44;;;;;;;39.47;13.13;;;11.00;54.70;;;;;;4191579;28;20546;-57
2022/03/24 05:35:45;;;;;;;36.60;12.63;;;11.50;54.10;;;;;;4191183;28;20151;-56
2022/03/24 05:37:46;;;;;;;40.60;12.70;;;11.70;53.10;;;;;;4190007;28;20048;-55
2022/03/24 05:39:47;;;;;;;29.43;12.60;;;12.00;53.50;;;;;;4191582;28;20028;-60
2022/03/24 05:41:48;;;;;;;33.77;12.70;;;12.40;52.70;;;;;;4189696;28;20032;-57
2022/03/24 05:44:05;;;;;;;33.83;13.63;;;12.90;52.20;;;;;;4190280;28;20110;-58
2022/03/24 05:46:06;;;;;;;30.97;12.67;;;13.10;51.70;;;;;;4185572;28;20041;-59
2022/03/24 05:48:07;;;;;;;33.47;13.43;;;13.40;50.90;;;;;;4175573;28;20033;-59
2022/03/24 05:50:09;;;;;;;37.30;12.97;;;13.70;51.00;;;;;;4171914;28;20094;-59
2022/03/24 05:52:11;;;;;;;33.90;13.07;;;13.80;50.80;;;;;;4175100;28;20045;-56
2022/03/24 05:54:14;;;;;;;36.67;13.37;;;14.00;50.60;;;;;;4174635;28;20087;-60
2022/03/24 05:56:16;;;;;;;34.83;12.93;;;13.70;50.10;;;;;;4177969;28;20065;-64
2022/03/24 05:58:17;;;;;;;40.63;13.20;;;13.60;50.40;;;;;;4173913;28;20107;-54
2022/03/24 06:00:18;;;;;;;51.57;14.23;;;13.90;50.70;;;;;;4175418;28;20095;-63
2022/03/24 06:02:20;;;;;;;60.97;14.73;;;13.80;49.90;;;;;;4173840;28;20256;-58
2022/03/24 06:04:23;;;;;;;63.20;13.87;;;13.50;50.30;;;;;;4174915;28;20049;-57
2022/03/24 06:06:26;;;;;;;61.50;15.23;;;13.20;50.60;;;;;;4173315;28;20056;-59
2022/03/24 06:08:27;;;;;;;73.13;15.40;;;13.10;50.80;;;;;;4175260;28;20052;-58
2022/03/24 06:10:31;;;;;;;59.03;16.60;;;13.50;51.00;;;;;;4176745;28;20503;-58
2022/03/24 06:12:32;;;;;;;61.57;14.97;;;13.60;50.50;;;;;;4191250;28;20109;-59
2022/03/24 06:14:34;;;;;;;58.53;14.20;;;13.80;50.40;;;;;;4185934;28;20032;-58
2022/03/24 06:16:36;;;;;;;54.77;18.60;;;14.00;50.00;;;;;;4171409;28;20197;-58
2022/03/24 06:18:37;;;;;;;60.93;18.87;;;14.20;49.50;;;;;;4173592;28;20025;-58
2022/03/24 06:20:38;;;;;;;53.17;17.10;;;14.30;49.30;;;;;;4174162;28;20048;-55
2022/03/24 06:22:58;;;;;;;56.80;18.03;;;14.20;49.20;;;;;;4176389;28;20028;-57
2022/03/24 06:24:59;;;;;;;55.65;19.08;;;14.10;49.10;;;;;;4174201;28;20033;-61
2022/03/24 06:27:01;;;;;;;48.97;19.37;;;14.00;49.50;;;;;;4175456;28;20159;-60
2022/03/24 06:29:03;;;;;;;47.70;17.27;;;14.00;49.50;;;;;;4173772;28;20056;-57
2022/03/24 06:31:05;;;;;;;59.53;18.07;;;13.90;49.40;;;;;;4174883;28;20086;-63
2022/03/24 06:33:06;;;;;;;51.13;18.27;;;13.80;49.50;;;;;;4173245;28;20388;-58
2022/03/24 06:35:08;;;;;;;48.33;17.47;;;13.80;49.30;;;;;;4174833;28;20037;-54
2022/03/24 06:37:09;;;;;;;66.70;17.73;;;14.00;49.40;;;;;;4173357;28;20099;-60
2022/03/24 06:39:11;;;;;;;56.67;18.40;;;14.00;49.20;;;;;;4174321;28;20129;-60
2022/03/24 06:41:14;;;;;;;47.23;17.70;;;14.10;49.40;;;;;;4173755;28;20068;-59
2022/03/24 06:43:15;;;;;;;48.90;17.07;;;13.90;49.10;;;;;;4174420;28;20056;-59
2022/03/24 06:45:17;;;;;;;46.83;17.03;;;13.50;49.50;;;;;;4173799;28;20079;-59
2022/03/24 06:47:18;;;;;;;61.33;18.67;;;13.60;49.80;;;;;;4174469;28;20045;-56
2022/03/24 06:49:19;;;;;;;52.40;19.23;;;13.30;50.00;;;;;;4173657;28;20143;-58
2022/03/24 06:51:21;;;;;;;51.67;18.93;;;13.20;50.10;;;;;;4173887;28;20098;-58
2022/03/24 06:53:22;;;;;;;41.77;16.57;;;12.70;50.40;;;;;;4173727;28;20032;-58
2022/03/24 06:55:23;;;;;;;46.27;17.57;;;12.40;50.90;;;;;;4173870;28;20713;-59
2022/03/24 06:57:24;;;;;;;60.53;18.03;;;12.20;50.90;;;;;;4174333;28;20041;-59
2022/03/24 06:59:25;;;;;;;45.60;17.80;;;12.20;51.00;;;;;;4173158;28;20099;-58
2022/03/24 07:01:27;;;;;;;53.53;17.87;;;12.20;51.10;;;;;;4174496;28;20555;-59
2022/03/24 07:03:28;;;;;;;55.10;19.23;;;12.50;50.90;;;;;;4173662;28;20025;-59
2022/03/24 07:05:29;;;;;;;49.03;17.23;;;12.80;50.30;;;;;;4174707;28;20068;-57
2022/03/24 07:07:31;;;;;;;57.53;19.13;;;12.60;50.40;;;;;;4172667;28;20052;-58
2022/03/24 07:09:32;;;;;;;53.17;17.47;;;12.70;50.70;;;;;;4174591;28;20087;-59
2022/03/24 07:11:33;;;;;;;55.13;18.37;;;12.60;50.70;;;;;;4173124;28;20048;-58
2022/03/24 07:13:35;;;;;;;45.20;17.97;;;12.50;50.90;;;;;;4174411;28;20078;-60
2022/03/24 07:15:36;;;;;;;40.40;16.37;;;12.30;51.10;;;;;;4173525;28;20033;-64
2022/03/24 07:17:37;;;;;;;43.60;15.00;;;11.90;51.50;;;;;;4174538;28;20493;-61
2022/03/24 07:19:38;;;;;;;35.53;16.87;;;11.60;51.90;;;;;;4172846;28;20452;-59
2022/03/24 07:21:40;;;;;;;31.30;13.70;;;11.50;52.30;;;;;;4173963;28;20488;-60
2022/03/24 07:23:41;;;;;;;36.97;13.97;;;11.40;52.40;;;;;;4173591;28;20452;-60
2022/03/24 07:25:42;;;;;;;37.80;14.80;;;11.30;52.60;;;;;;4173460;28;20040;-60
2022/03/24 07:27:44;;;;;;;32.33;13.13;;;11.40;52.30;;;;;;4174157;28;20923;-58
2022/03/24 07:29:45;;;;;;;35.87;13.27;;;11.40;52.10;;;;;;4172344;28;20029;-58
2022/03/24 07:31:46;;;;;;;34.20;14.73;;;11.40;52.50;;;;;;4173837;28;20044;-58
2022/03/24 07:33:48;;;;;;;32.87;14.03;;;11.60;52.50;;;;;;4172868;28;20098;-58
2022/03/24 07:35:49;;;;;;;30.10;13.63;;;11.80;52.20;;;;;;4174061;28;20044;-61
2022/03/24 07:37:51;;;;;;;21.50;12.03;;;11.90;52.10;;;;;;4171942;28;20095;-59
2022/03/24 07:39:53;;;;;;;31.00;13.57;;;11.90;51.80;;;;;;4174258;28;20053;-60
2022/03/24 07:41:54;;;;;;;26.37;12.20;;;11.90;51.80;;;;;;4172550;28;20037;-58
2022/03/24 07:43:55;;;;;;;34.67;11.57;;;11.90;51.70;;;;;;4173671;28;20037;-61
2022/03/24 07:45:56;;;;;;;34.13;12.37;;;11.70;51.80;;;;;;4171557;28;20138;-59
2022/03/24 07:48:11;;;;;;;27.60;10.90;;;11.60;52.00;;;;;;4173868;28;20481;-59
2022/03/24 07:50:12;;;;;;;23.73;11.23;;;11.60;52.20;;;;;;4173044;28;20087;-57
2022/03/24 07:52:15;;;;;;;26.53;11.07;;;11.50;52.30;;;;;;4173594;28;20049;-58
2022/03/24 07:54:16;;;;;;;24.33;11.17;;;11.30;52.60;;;;;;4170934;28;20067;-58
2022/03/24 07:56:24;;;;;;;24.83;10.63;;;11.20;52.80;;;;;;4173236;28;20044;-60
2022/03/24 07:58:26;;;;;;;22.93;10.57;;;11.20;52.80;;;;;;4173314;28;20323;-59
2022/03/24 08:00:27;;;;;;;25.10;11.77;;;11.30;52.60;;;;;;4173146;28;20037;-58
2022/03/24 08:02:28;;;;;;;22.57;10.67;;;11.60;52.20;;;;;;4173388;28;20090;-58
2022/03/24 08:04:29;;;;;;;25.67;10.83;;;11.60;52.10;;;;;;4172810;28;20045;-59
2022/03/24 08:06:31;;;;;;;19.40;9.97;;;11.60;51.90;;;;;;4173778;28;20090;-59
2022/03/24 08:08:33;;;;;;;20.90;9.77;;;11.50;51.80;;;;;;4172363;28;20393;-59
2022/03/24 08:10:34;;;;;;;22.77;10.80;;;11.80;51.80;;;;;;4173703;28;20658;-59
2022/03/24 08:12:35;;;;;;;20.57;10.93;;;12.10;51.60;;;;;;4171782;28;20041;-57
2022/03/24 08:14:37;;;;;;;25.20;11.17;;;12.30;50.90;;;;;;4173620;28;20095;-59
2022/03/24 08:16:39;;;;;;;21.67;10.90;;;12.30;50.60;;;;;;4171685;28;20087;-58
2022/03/24 08:18:40;;;;;;;19.43;9.60;;;12.50;50.60;;;;;;4173789;28;20036;-59
2022/03/24 08:20:43;;;;;;;24.83;9.50;;;12.60;50.20;;;;;;4172707;28;20443;-58
2022/03/24 08:22:44;;;;;;;26.57;10.70;;;12.70;50.10;;;;;;4174329;28;20033;-58
2022/03/24 08:24:45;;;;;;;19.57;9.70;;;12.90;49.60;;;;;;4172211;28;20033;-58
2022/03/24 08:26:46;;;;;;;22.07;8.93;;;13.00;49.00;;;;;;4173393;28;20611;-58
2022/03/24 08:28:47;;;;;;;21.73;8.90;;;13.00;48.80;;;;;;4172639;28;20075;-58
2022/03/24 08:30:49;;;;;;;16.93;8.70;;;13.20;48.60;;;;;;4172766;28;20053;-58
2022/03/24 08:32:50;;;;;;;18.27;8.53;;;13.70;48.60;;;;;;4172764;28;20067;-58
2022/03/24 08:34:51;;;;;;;18.97;9.33;;;13.90;47.90;;;;;;4172080;28;20036;-59
2022/03/24 08:36:52;;;;;;;20.00;9.10;;;14.00;47.60;;;;;;4173266;28;20037;-64
2022/03/24 08:38:53;;;;;;;19.87;8.63;;;14.10;47.40;;;;;;4172297;28;20033;-57
2022/03/24 08:40:55;;;;;;;32.37;9.27;;;14.20;47.30;;;;;;4172105;28;20041;-57
2022/03/24 08:42:56;;;;;;;21.20;9.07;;;14.30;47.30;;;;;;4172060;28;20060;-58
2022/03/24 08:44:57;;;;;;;17.27;8.87;;;14.50;46.90;;;;;;4172902;28;20037;-60
2022/03/24 08:46:58;;;;;;;18.40;8.77;;;14.80;46.60;;;;;;4171602;28;20056;-59
2022/03/24 08:49:00;;;;;;;26.00;8.60;;;15.10;46.20;;;;;;4173235;28;20033;-64
2022/03/24 08:51:02;;;;;;;19.03;9.43;;;15.30;46.30;;;;;;4172538;28;20044;-58
2022/03/24 08:53:04;;;;;;;23.20;7.90;;;15.80;46.10;;;;;;4173638;28;20025;-60
2022/03/24 08:55:07;;;;;;;22.63;9.83;;;16.10;45.40;;;;;;4171790;28;20091;-63
2022/03/24 08:57:09;;;;;;;22.03;8.50;;;16.10;44.60;;;;;;4174644;28;20582;-61
2022/03/24 08:59:10;;;;;;;18.23;8.83;;;16.10;44.50;;;;;;4173351;28;20131;-61
2022/03/24 09:01:11;;;;;;;18.57;8.20;;;16.00;45.00;;;;;;4175747;28;20037;-61
2022/03/24 09:03:13;;;;;;;21.23;9.37;;;16.00;44.80;;;;;;4175937;28;20063;-61
2022/03/24 09:05:18;;;;;;;22.07;8.80;;;16.00;44.90;;;;;;4174925;28;20037;-58
2022/03/24 09:07:19;;;;;;;22.63;10.43;;;15.90;44.70;;;;;;4175954;28;20033;-57
2022/03/24 09:09:22;;;;;;;28.07;10.30;;;15.90;45.10;;;;;;4175515;28;20087;-60
2022/03/24 09:11:23;;;;;;;25.57;10.23;;;15.90;45.00;;;;;;4176248;28;20547;-58
2022/03/24 09:13:25;;;;;;;26.77;10.87;;;16.00;44.90;;;;;;4175502;28;20029;-58
2022/03/24 09:15:26;;;;;;;25.17;10.60;;;16.20;44.70;;;;;;4175892;28;20496;-60
2022/03/24 09:17:27;;;;;;;22.30;8.60;;;16.30;44.40;;;;;;4174706;28;20037;-60
2022/03/24 09:19:29;;;;;;;19.03;8.60;;;16.50;44.10;;;;;;4176044;28;20087;-62
2022/03/24 09:21:30;;;;;;;17.43;8.80;;;16.60;43.60;;;;;;4175776;28;20044;-61
2022/03/24 09:23:31;;;;;;;19.65;8.13;;;16.80;43.30;;;;;;4175858;28;20033;-60
2022/03/24 09:25:33;;;;;;;15.95;8.10;;;17.00;43.10;;;;;;4175133;28;20122;-60
2022/03/24 09:27:35;;;;;;;15.80;7.43;;;17.20;42.80;;;;;;4175548;28;20049;-60
2022/03/24 09:29:36;;;;;;;13.55;8.00;;;17.60;42.40;;;;;;4175085;28;20075;-59
2022/03/24 09:31:37;;;;;;;13.27;7.55;;;17.80;41.90;;;;;;4175205;28;20079;-60
2022/03/24 09:33:38;;;;;;;14.57;7.72;;;18.10;41.60;;;;;;4175096;28;20449;-58
2022/03/24 09:35:40;;;;;;;13.95;7.45;;;18.00;41.30;;;;;;4174796;28;20095;-58
2022/03/24 09:37:42;;;;;;;14.73;7.20;;;18.30;41.80;;;;;;4175477;28;20053;-60
2022/03/24 09:39:44;;;;;;;18.25;8.80;;;18.40;41.40;;;;;;4174976;28;20037;-60
2022/03/24 09:41:49;;;;;;;16.15;7.93;;;18.40;41.30;;;;;;4174452;28;20091;-59
2022/03/24 09:43:50;;;;;;;13.68;7.95;;;18.30;41.40;;;;;;4173315;28;20079;-59
2022/03/24 09:45:52;;;;;;;17.40;6.70;;;18.20;41.40;;;;;;4175991;28;20052;-59
2022/03/24 09:47:55;;;;;;;12.00;5.00;;;18.30;40.70;;;;;;4173748;28;20052;-57
2022/03/24 09:49:57;;;;;;;11.70;4.93;;;18.60;39.60;;;;;;4175528;28;20044;-58
2022/03/24 09:51:58;;;;;;;16.13;4.47;;;18.80;39.20;;;;;;4174836;28;20327;-58
2022/03/24 09:54:00;;;;;;;10.27;4.90;;;19.00;38.20;;;;;;4175441;28;20044;-58
2022/03/24 09:56:01;;;;;;;20.58;5.63;;;19.10;38.60;;;;;;4174081;28;20118;-58
2022/03/24 09:58:03;;;;;;;33.75;6.85;;;19.40;38.50;;;;;;4175151;28;20029;-60
2022/03/24 10:00:05;;;;;;;20.15;5.43;;;19.30;38.00;;;;;;4188746;28;20045;-58
2022/03/24 10:02:07;;;;;;;8.52;4.22;;;19.40;38.20;;;;;;4175133;28;20033;-58
2022/03/24 10:04:16;;;;;;;11.95;5.00;;;19.10;37.40;;;;;;4174084;28;20037;-59
2022/03/24 10:06:17;;;;;;;12.35;4.25;;;19.10;38.10;;;;;;4175416;28;20033;-59
2022/03/24 10:08:18;;;;;;;20.55;4.88;;;19.40;38.30;;;;;;4173621;28;20511;-57
2022/03/24 10:10:31;;;;;;;20.80;4.93;;;19.50;37.60;;;;;;4174745;28;20041;-57
2022/03/24 10:12:37;;;;;;;13.45;4.68;;;19.70;36.60;;;;;;4174444;28;20135;-58
2022/03/24 10:14:42;;;;;;;13.80;5.25;;;19.80;36.80;;;;;;4174784;28;20079;-53
2022/03/24 10:16:44;;;;;;;21.20;7.60;;;19.80;37.10;;;;;;4174819;28;20029;-65
2022/03/24 10:18:59;;;;;;;18.73;6.47;;;19.80;36.10;;;;;;4174145;28;20082;-60
2022/03/24 10:21:03;;;;;;;14.20;4.80;;;19.80;35.80;;;;;;4174246;28;20024;-58
2022/03/24 10:23:06;;;;;;;11.77;5.07;;;19.70;36.40;;;;;;4174640;28;20098;-59
2022/03/24 10:25:21;;;;;;;36.45;6.95;;;19.80;36.40;;;;;;4174983;28;20036;-58
2022/03/24 10:27:27;;;;;;;14.63;5.55;;;19.70;34.50;;;;;;4174121;28;20555;-59
2022/03/24 10:29:29;;;;;;;15.50;4.88;;;19.40;34.90;;;;;;4174898;28;20029;-57